WAT3911 PGUM-PKMJ
Flight info
| Callsign | WAT3911 |
|---|---|
| Flight time | 3h 48m |
| Altitude | 41000 |
| Route | FATUM 1120N15530E OLGIS CURCH WOZTI |
| Aircraft | C700/M-SBDGHM1RWXY/LB2 |
Departure
| Time | 2026-04-30 14:44 |
|---|---|
| Airport | Antonio B. Won Pat International Airport (PGUM) |
Arrival
| Time | 2026-04-30 18:33 |
|---|---|
| Airport | Marshall Islands International Airport (PKMJ) |
| Time | Latitude | Longitude | Altitude | Speed | Heading |
|---|---|---|---|---|---|
| 2026-04-30 14:22 | 13.47962 | 144.80106 | 268 ft | 0 kts | 155° |
| 2026-04-30 14:35 | 13.47966 | 144.80104 | 268 ft | 1 kts | 155° |
| 2026-04-30 14:36 | 13.47980 | 144.80097 | 268 ft | 2 kts | 167° |
| 2026-04-30 14:36 | 13.47996 | 144.80099 | 268 ft | 2 kts | 212° |
| 2026-04-30 14:36 | 13.48005 | 144.80111 | 269 ft | 0 kts | 242° |
| 2026-04-30 14:38 | 13.48005 | 144.80110 | 269 ft | 0 kts | 242° |
| 2026-04-30 14:38 | 13.48003 | 144.80100 | 269 ft | 4 kts | 277° |
| 2026-04-30 14:38 | 13.48043 | 144.80068 | 269 ft | 11 kts | 335° |
| 2026-04-30 14:38 | 13.48119 | 144.80081 | 271 ft | 12 kts | 56° |
| 2026-04-30 14:39 | 13.48156 | 144.80163 | 274 ft | 13 kts | 66° |
| 2026-04-30 14:39 | 13.48196 | 144.80253 | 276 ft | 14 kts | 63° |
| 2026-04-30 14:39 | 13.48282 | 144.80250 | 278 ft | 15 kts | 336° |
| 2026-04-30 14:40 | 13.48516 | 144.80141 | 278 ft | 21 kts | 335° |
| 2026-04-30 14:40 | 13.48661 | 144.80070 | 275 ft | 25 kts | 333° |
| 2026-04-30 14:40 | 13.48742 | 144.79990 | 272 ft | 16 kts | 246° |
| 2026-04-30 14:40 | 13.48687 | 144.79871 | 268 ft | 22 kts | 245° |
| 2026-04-30 14:41 | 13.48615 | 144.79712 | 263 ft | 27 kts | 245° |
| 2026-04-30 14:41 | 13.48530 | 144.79525 | 258 ft | 31 kts | 244° |
| 2026-04-30 14:41 | 13.48430 | 144.79310 | 255 ft | 35 kts | 244° |
| 2026-04-30 14:41 | 13.48323 | 144.79073 | 251 ft | 38 kts | 245° |
| 2026-04-30 14:42 | 13.48209 | 144.78826 | 249 ft | 39 kts | 245° |
| 2026-04-30 14:42 | 13.48097 | 144.78581 | 244 ft | 37 kts | 245° |
| 2026-04-30 14:42 | 13.47987 | 144.78340 | 235 ft | 37 kts | 244° |
| 2026-04-30 14:42 | 13.47906 | 144.78166 | 231 ft | 12 kts | 244° |
| 2026-04-30 14:43 | 13.47831 | 144.78139 | 229 ft | 14 kts | 158° |
| 2026-04-30 14:43 | 13.47814 | 144.78224 | 233 ft | 16 kts | 68° |
| 2026-04-30 14:43 | 13.47919 | 144.78457 | 237 ft | 67 kts | 64° |
| 2026-04-30 14:43 | 13.48238 | 144.79128 | 252 ft | 140 kts | 65° |
| 2026-04-30 14:44 | 13.48701 | 144.80175 | 664 ft | 173 kts | 66° |
| 2026-04-30 14:44 | 13.49222 | 144.81370 | 1554 ft | 188 kts | 66° |
| 2026-04-30 14:44 | 13.49768 | 144.82574 | 2640 ft | 193 kts | 65° |
| 2026-04-30 14:44 | 13.50345 | 144.83834 | 3404 ft | 193 kts | 66° |
| 2026-04-30 14:45 | 13.50925 | 144.85133 | 4276 ft | 208 kts | 67° |
| 2026-04-30 14:45 | 13.51131 | 144.86638 | 5230 ft | 225 kts | 100° |
| 2026-04-30 14:45 | 13.50457 | 144.88131 | 6285 ft | 237 kts | 119° |
| 2026-04-30 14:45 | 13.49578 | 144.89572 | 7415 ft | 245 kts | 120° |
| 2026-04-30 14:46 | 13.48644 | 144.91084 | 8598 ft | 249 kts | 120° |
| 2026-04-30 14:46 | 13.47707 | 144.92596 | 9759 ft | 252 kts | 120° |
| 2026-04-30 14:46 | 13.46742 | 144.94162 | 10552 ft | 272 kts | 120° |
| 2026-04-30 14:46 | 13.45697 | 144.95871 | 11058 ft | 300 kts | 120° |
| 2026-04-30 14:47 | 13.44549 | 144.97761 | 11739 ft | 319 kts | 120° |
| 2026-04-30 14:47 | 13.43370 | 144.99717 | 12884 ft | 325 kts | 120° |
| 2026-04-30 14:47 | 13.42281 | 145.01765 | 13894 ft | 330 kts | 108° |
| 2026-04-30 14:47 | 13.41839 | 145.04088 | 14926 ft | 334 kts | 94° |
| 2026-04-30 14:48 | 13.41670 | 145.06488 | 15901 ft | 340 kts | 93° |
| 2026-04-30 14:48 | 13.41407 | 145.08922 | 16853 ft | 346 kts | 97° |
| 2026-04-30 14:48 | 13.40935 | 145.11369 | 17756 ft | 352 kts | 101° |
| 2026-04-30 14:48 | 13.40445 | 145.13855 | 18625 ft | 358 kts | 98° |
| 2026-04-30 14:49 | 13.40040 | 145.16393 | 19483 ft | 362 kts | 97° |
| 2026-04-30 14:49 | 13.39636 | 145.18966 | 20314 ft | 368 kts | 98° |
| 2026-04-30 14:49 | 13.39186 | 145.21568 | 21117 ft | 372 kts | 98° |
| 2026-04-30 14:49 | 13.38727 | 145.24200 | 21888 ft | 377 kts | 98° |
| 2026-04-30 14:50 | 13.37832 | 145.29538 | 23351 ft | 386 kts | 98° |
| 2026-04-30 14:50 | 13.37367 | 145.32266 | 24048 ft | 390 kts | 98° |
| 2026-04-30 14:51 | 13.36424 | 145.37809 | 25353 ft | 399 kts | 98° |
| 2026-04-30 14:51 | 13.35943 | 145.40633 | 25967 ft | 404 kts | 99° |
| 2026-04-30 14:51 | 13.34963 | 145.46390 | 27144 ft | 413 kts | 99° |
| 2026-04-30 14:52 | 13.34466 | 145.49308 | 27707 ft | 417 kts | 99° |
| 2026-04-30 14:52 | 13.33455 | 145.55247 | 28778 ft | 426 kts | 99° |
| 2026-04-30 14:52 | 13.32940 | 145.58255 | 29299 ft | 430 kts | 100° |
| 2026-04-30 14:53 | 13.31897 | 145.64359 | 30289 ft | 438 kts | 99° |
| 2026-04-30 14:53 | 13.31367 | 145.67451 | 30761 ft | 442 kts | 100° |
| 2026-04-30 14:54 | 13.30293 | 145.73714 | 31722 ft | 449 kts | 100° |
| 2026-04-30 14:54 | 13.29204 | 145.80072 | 32623 ft | 455 kts | 100° |
| 2026-04-30 14:55 | 13.28096 | 145.86513 | 33435 ft | 461 kts | 101° |
| 2026-04-30 14:55 | 13.27536 | 145.89763 | 33834 ft | 464 kts | 101° |
| 2026-04-30 14:55 | 13.26404 | 145.96335 | 34576 ft | 469 kts | 101° |
| 2026-04-30 14:56 | 13.25260 | 146.02967 | 35282 ft | 475 kts | 101° |
| 2026-04-30 14:56 | 13.24111 | 146.09619 | 36156 ft | 475 kts | 101° |
| 2026-04-30 14:57 | 13.23533 | 146.12959 | 36619 ft | 475 kts | 101° |
| 2026-04-30 14:57 | 13.22375 | 146.19644 | 37452 ft | 475 kts | 100° |
| 2026-04-30 14:58 | 13.21218 | 146.26310 | 38256 ft | 474 kts | 100° |
| 2026-04-30 14:58 | 13.20639 | 146.29645 | 38628 ft | 474 kts | 100° |
| 2026-04-30 14:58 | 13.19480 | 146.36303 | 39305 ft | 474 kts | 100° |
| 2026-04-30 14:59 | 13.18324 | 146.42942 | 39952 ft | 472 kts | 100° |
| 2026-04-30 15:00 | 13.16594 | 146.52854 | 40807 ft | 469 kts | 100° |
| 2026-04-30 15:00 | 13.15435 | 146.59479 | 40955 ft | 476 kts | 101° |
| 2026-04-30 15:01 | 13.14264 | 146.66162 | 40958 ft | 479 kts | 101° |
| 2026-04-30 15:01 | 13.12498 | 146.76233 | 40963 ft | 476 kts | 101° |
| 2026-04-30 15:02 | 13.11324 | 146.82907 | 40964 ft | 474 kts | 101° |
| 2026-04-30 15:03 | 13.08403 | 146.99472 | 40962 ft | 471 kts | 101° |
| 2026-04-30 15:04 | 13.05481 | 147.15983 | 40962 ft | 472 kts | 101° |
| 2026-04-30 15:06 | 13.02544 | 147.32512 | 40959 ft | 471 kts | 101° |
| 2026-04-30 15:07 | 13.00180 | 147.45768 | 40960 ft | 473 kts | 101° |
| 2026-04-30 15:08 | 12.97815 | 147.59002 | 40963 ft | 473 kts | 101° |
| 2026-04-30 15:09 | 12.94837 | 147.75595 | 40963 ft | 473 kts | 101° |
| 2026-04-30 15:10 | 12.92454 | 147.88830 | 40963 ft | 472 kts | 101° |
| 2026-04-30 15:11 | 12.89079 | 148.07506 | 40960 ft | 469 kts | 102° |
| 2026-04-30 15:13 | 12.86099 | 148.23933 | 40952 ft | 470 kts | 102° |
| 2026-04-30 15:14 | 12.81901 | 148.46975 | 40955 ft | 470 kts | 102° |
| 2026-04-30 15:17 | 12.76494 | 148.76481 | 40950 ft | 469 kts | 102° |
| 2026-04-30 15:19 | 12.71658 | 149.02711 | 40950 ft | 466 kts | 103° |
| 2026-04-30 17:39 | 8.65000 | 167.10260 | 40874 ft | 475 kts | 103° |
| 2026-04-30 17:42 | 8.57583 | 167.42705 | 40872 ft | 473 kts | 103° |
| 2026-04-30 17:43 | 8.53860 | 167.58940 | 40884 ft | 475 kts | 103° |
| 2026-04-30 17:44 | 8.49378 | 167.78440 | 40878 ft | 475 kts | 104° |
| 2026-04-30 17:47 | 8.42656 | 168.07608 | 40879 ft | 471 kts | 104° |
| 2026-04-30 17:48 | 8.37412 | 168.30284 | 40875 ft | 475 kts | 104° |
| 2026-04-30 17:50 | 8.31417 | 168.56131 | 40878 ft | 474 kts | 104° |
| 2026-04-30 17:52 | 8.24874 | 168.74830 | 40877 ft | 473 kts | 116° |
| 2026-04-30 17:54 | 8.12369 | 169.01907 | 40880 ft | 473 kts | 116° |
| 2026-04-30 17:56 | 8.01178 | 169.26087 | 40866 ft | 474 kts | 116° |
| 2026-04-30 17:57 | 7.97009 | 169.35086 | 40741 ft | 475 kts | 116° |
| 2026-04-30 17:58 | 7.92860 | 169.44034 | 39247 ft | 458 kts | 116° |
| 2026-04-30 17:59 | 7.87530 | 169.55520 | 36698 ft | 450 kts | 115° |
| 2026-04-30 18:00 | 7.82215 | 169.66963 | 34269 ft | 457 kts | 115° |
| 2026-04-30 18:00 | 7.79870 | 169.72011 | 33210 ft | 460 kts | 115° |
| 2026-04-30 18:01 | 7.77141 | 169.77881 | 31976 ft | 464 kts | 115° |
| 2026-04-30 18:02 | 7.73014 | 169.86757 | 30122 ft | 469 kts | 114° |
| 2026-04-30 18:02 | 7.68866 | 169.95667 | 28253 ft | 464 kts | 114° |
| 2026-04-30 18:03 | 7.64793 | 170.04412 | 26423 ft | 454 kts | 114° |
| 2026-04-30 18:04 | 7.60794 | 170.12995 | 24623 ft | 446 kts | 114° |
| 2026-04-30 18:05 | 7.55605 | 170.24122 | 22284 ft | 432 kts | 114° |
| 2026-04-30 18:06 | 7.50583 | 170.34884 | 20040 ft | 417 kts | 114° |
| 2026-04-30 18:07 | 7.45735 | 170.45267 | 17869 ft | 401 kts | 115° |
| 2026-04-30 18:08 | 7.42220 | 170.52788 | 16306 ft | 390 kts | 115° |
| 2026-04-30 18:09 | 7.40324 | 170.56846 | 15459 ft | 384 kts | 115° |
| 2026-04-30 18:19 | 7.39336 | 170.58957 | 15073 ft | 380 kts | 115° |
| 2026-04-30 18:19 | 7.38213 | 170.61358 | 14645 ft | 379 kts | 115° |
| 2026-04-30 18:19 | 7.37107 | 170.63726 | 14151 ft | 377 kts | 115° |
| 2026-04-30 18:20 | 7.35997 | 170.66096 | 13664 ft | 361 kts | 115° |
| 2026-04-30 18:20 | 7.34964 | 170.68304 | 13145 ft | 347 kts | 115° |
| 2026-04-30 18:20 | 7.33954 | 170.70463 | 12699 ft | 334 kts | 115° |
| 2026-04-30 18:20 | 7.32980 | 170.72542 | 12274 ft | 322 kts | 115° |
| 2026-04-30 18:21 | 7.32037 | 170.74558 | 11861 ft | 312 kts | 115° |
| 2026-04-30 18:21 | 7.31123 | 170.76509 | 11460 ft | 304 kts | 115° |
| 2026-04-30 18:21 | 7.30236 | 170.78408 | 11074 ft | 295 kts | 115° |
| 2026-04-30 18:21 | 7.29367 | 170.80260 | 10683 ft | 288 kts | 115° |
| 2026-04-30 18:22 | 7.28501 | 170.82055 | 10305 ft | 282 kts | 118° |
| 2026-04-30 18:22 | 7.25984 | 170.84968 | 9574 ft | 272 kts | 133° |
| 2026-04-30 18:22 | 7.24675 | 170.86337 | 9218 ft | 269 kts | 132° |
| 2026-04-30 18:23 | 7.23378 | 170.87685 | 8861 ft | 268 kts | 132° |
| 2026-04-30 18:23 | 7.22079 | 170.89029 | 8506 ft | 267 kts | 132° |
| 2026-04-30 18:23 | 7.20785 | 170.90364 | 8151 ft | 265 kts | 132° |
| 2026-04-30 18:23 | 7.19520 | 170.91676 | 7805 ft | 263 kts | 131° |
| 2026-04-30 18:24 | 7.16983 | 170.94302 | 7112 ft | 260 kts | 131° |
| 2026-04-30 18:24 | 7.15728 | 170.95604 | 6768 ft | 258 kts | 131° |
| 2026-04-30 18:24 | 7.14480 | 170.96896 | 6425 ft | 257 kts | 131° |
| 2026-04-30 18:25 | 7.13238 | 170.98181 | 6083 ft | 255 kts | 131° |
| 2026-04-30 18:25 | 7.10803 | 171.00697 | 5417 ft | 241 kts | 130° |
| 2026-04-30 18:25 | 7.09668 | 171.01874 | 5110 ft | 228 kts | 130° |
| 2026-04-30 18:26 | 7.07557 | 171.04083 | 4542 ft | 211 kts | 128° |
| 2026-04-30 18:26 | 7.06581 | 171.05163 | 4264 ft | 206 kts | 128° |
| 2026-04-30 18:26 | 7.05617 | 171.06191 | 4030 ft | 194 kts | 128° |
| 2026-04-30 18:27 | 7.03928 | 171.08025 | 3574 ft | 167 kts | 127° |
| 2026-04-30 18:27 | 7.03183 | 171.08881 | 3359 ft | 157 kts | 119° |
| 2026-04-30 18:28 | 7.02593 | 171.10882 | 2958 ft | 149 kts | 88° |
| 2026-04-30 18:28 | 7.02741 | 171.11903 | 2766 ft | 148 kts | 74° |
| 2026-04-30 18:28 | 7.03223 | 171.13874 | 2393 ft | 131 kts | 75° |
| 2026-04-30 18:29 | 7.03454 | 171.14774 | 2210 ft | 132 kts | 74° |
| 2026-04-30 18:29 | 7.04100 | 171.17427 | 1690 ft | 129 kts | 75° |
| 2026-04-30 18:30 | 7.04515 | 171.19113 | 1448 ft | 119 kts | 73° |
| 2026-04-30 18:30 | 7.04905 | 171.20703 | 1131 ft | 117 kts | 73° |
| 2026-04-30 18:31 | 7.05096 | 171.21472 | 979 ft | 113 kts | 75° |
| 2026-04-30 18:31 | 7.05468 | 171.23005 | 665 ft | 114 kts | 74° |
| 2026-04-30 18:32 | 7.05856 | 171.24568 | 359 ft | 114 kts | 73° |
| 2026-04-30 18:32 | 7.06050 | 171.25337 | 173 ft | 114 kts | 74° |
| 2026-04-30 18:32 | 7.06402 | 171.26785 | -5 ft | 79 kts | 76° |
| 2026-04-30 18:33 | 7.06492 | 171.27155 | -1 ft | 23 kts | 83° |
| 2026-04-30 18:33 | 7.06499 | 171.27149 | -1 ft | 14 kts | 247° |
| 2026-04-30 18:33 | 7.06471 | 171.27046 | 1 ft | 16 kts | 273° |
| 2026-04-30 18:34 | 7.06512 | 171.27006 | -1 ft | 2 kts | 32° |
| 2026-04-30 18:34 | 7.06519 | 171.27015 | -1 ft | 0 kts | 55° |